Matoaca, Virginia
Current Conditions -  °F | °C
As of 3:55 PM on Saturday 25 Oct 2014 (Local Time) from KPTB Reporting Station
Clear Clear  
Wind Chill: 21°   Ceiling: Unl
Heat Index: 21°   Visibility: 10mi
Dew Point:   Wind: 9mph
Humidity: 28%   Direction: 240°WSW
Pressure: 29.86"   Gusts: NA
Location:  37.2163°N, 77.4783°W
Report Text: KPTB 251955Z AUTO 24008KT 10SM CLR 21/02 A2986 RMK AO2 T02080016
Loading
Personal Weather Stations






























Interactive Weather Map
Tropical Storm Tracking
New forecast layout! Learn more

10-Day Weather Forecast

Advertisements
Track Severe Weather on mobile